Meyer, Iowa
Current Conditions -  °F | °C
As of 8:36 AM on Friday 19 Dec 2014 (Local Time) from KAUM Reporting Station
Haze Haze  
Wind Chill: 18°   Ceiling: 1800
Heat Index: 25°   Visibility: 5mi
Dew Point: 21°   Wind: 6mph
Humidity: 86%   Direction: 180°S
Pressure: 30.24"   Gusts: NA
Location:  43.4645°N, 92.6131°W
Report Text: KAUM 191436Z AUTO 18005KT 5SM BR BKN018 OVC029 M04/M06 A3024 RMK AO2
Loading
Personal Weather Stations






























Interactive Weather Map New forecast layout! Learn more

10-Day Weather Forecast

Advertisements
Track Severe Weather on mobile